TW-0012 weather

Hulien Hospital Heliport
Hualien, Hualien County, Taiwan

Public forecast

Using degrees Celsius for public forecast. Weather courtesy of forecast.io.

METAR (pilot weather report)

Closest report is Taichung Ching Chuang Kang Airport, 57.0 nm (105.5 km) WNW. Retrieved 2019/09/20 17:00 UTC (25 minutes ago):

RCMQ 201700Z 01015G25KT 9999 FEW010 SCT030 22/15 Q1004 RMK A2967

TAF (pilot weather forecast)

Closest forecast is Taichung Ching Chuang Kang Airport, 57.0 nm (105.5 km) WNW. Retrieved 2019/09/20 12:21 UTC (5 hours ago):

TAF RCMQ 201100Z 2012/2112 02022G32KT 9999 FEW010 SCT025 BKN050 TX28/2106Z TN22/2021Z BECMG 2016/2019 36018G28KT TEMPO 2020/2101 8000 -RA SCT008 BKN020 BKN040 BECMG 2102/2105 36010KT SCT010 BKN025 BKN050 BECMG 2108/2111 18004KT FEW010 BKN060